sensor_id;sensor_type;location;lat;lon;timestamp;pressure;altitude;pressure_sealevel;temperature;humidity
77662;BME280;69666;52.136;5.424;2023-08-01T00:01:43;100034.22;;;16.32;100.00
77662;BME280;69666;52.136;5.424;2023-08-01T00:04:13;100032.50;;;16.31;100.00
77662;BME280;69666;52.136;5.424;2023-08-01T00:06:42;100021.09;;;16.27;100.00
77662;BME280;69666;52.136;5.424;2023-08-01T00:09:11;100027.53;;;16.25;100.00
77662;BME280;69666;52.136;5.424;2023-08-01T00:11:41;100022.41;;;16.22;100.00
77662;BME280;69666;52.136;5.424;2023-08-01T00:14:10;100016.28;;;16.20;100.00
77662;BME280;69666;52.136;5.424;2023-08-01T00:16:39;100027.13;;;16.18;100.00
77662;BME280;69666;52.136;5.424;2023-08-01T00:19:09;100024.75;;;16.14;100.00
77662;BME280;69666;52.136;5.424;2023-08-01T00:21:38;100023.03;;;16.13;100.00
77662;BME280;69666;52.136;5.424;2023-08-01T00:24:07;100014.25;;;16.11;100.00
77662;BME280;69666;52.136;5.424;2023-08-01T00:26:36;100006.31;;;16.09;100.00
77662;BME280;69666;52.136;5.424;2023-08-01T00:29:06;100015.22;;;16.10;100.00
77662;BME280;69666;52.136;5.424;2023-08-01T00:31:35;99997.41;;;16.09;100.00
77662;BME280;69666;52.136;5.424;2023-08-01T00:34:05;99990.22;;;16.09;100.00
77662;BME280;69666;52.136;5.424;2023-08-01T00:36:34;99990.31;;;16.08;100.00
77662;BME280;69666;52.136;5.424;2023-08-01T00:39:03;99987.72;;;16.06;100.00
77662;BME280;69666;52.136;5.424;2023-08-01T00:41:32;99981.59;;;16.04;100.00
77662;BME280;69666;52.136;5.424;2023-08-01T00:44:01;99972.94;;;16.00;100.00
77662;BME280;69666;52.136;5.424;2023-08-01T00:46:31;99971.31;;;15.98;100.00
77662;BME280;69666;52.136;5.424;2023-08-01T00:49:01;99971.53;;;15.95;100.00
77662;BME280;69666;52.136;5.424;2023-08-01T00:51:32;99967.22;;;15.92;100.00
77662;BME280;69666;52.136;5.424;2023-08-01T00:54:01;99954.34;;;15.85;100.00
77662;BME280;69666;52.136;5.424;2023-08-01T00:56:31;99960.78;;;15.82;100.00
77662;BME280;69666;52.136;5.424;2023-08-01T00:59:01;99955.63;;;15.79;100.00
77662;BME280;69666;52.136;5.424;2023-08-01T01:01:30;99946.84;;;15.77;100.00
77662;BME280;69666;52.136;5.424;2023-08-01T01:03:59;99953.28;;;15.75;100.00
77662;BME280;69666;52.136;5.424;2023-08-01T01:06:44;99949.94;;;15.71;100.00
77662;BME280;69666;52.136;5.424;2023-08-01T01:09:18;99947.59;;;15.66;100.00
77662;BME280;69666;52.136;5.424;2023-08-01T01:11:49;99949.63;;;15.63;100.00
77662;BME280;69666;52.136;5.424;2023-08-01T01:14:18;99942.66;;;15.60;100.00
77662;BME280;69666;52.136;5.424;2023-08-01T01:16:47;99950.94;;;15.57;100.00
77662;BME280;69666;52.136;5.424;2023-08-01T01:19:16;99951.13;;;15.54;100.00
77662;BME280;69666;52.136;5.424;2023-08-01T01:21:48;99950.44;;;15.51;100.00
77662;BME280;69666;52.136;5.424;2023-08-01T01:24:19;99949.78;;;15.47;100.00
77662;BME280;69666;52.136;5.424;2023-08-01T01:26:51;99950.97;;;15.43;100.00
77662;BME280;69666;52.136;5.424;2023-08-01T01:29:23;99951.06;;;15.42;100.00
77662;BME280;69666;52.136;5.424;2023-08-01T01:31:53;99945.91;;;15.39;100.00
77662;BME280;69666;52.136;5.424;2023-08-01T01:34:22;99952.34;;;15.36;100.00
77662;BME280;69666;52.136;5.424;2023-08-01T01:36:52;99949.78;;;15.34;100.00
77662;BME280;69666;52.136;5.424;2023-08-01T01:39:21;99945.47;;;15.32;100.00
77662;BME280;69666;52.136;5.424;2023-08-01T01:41:50;99950.00;;;15.31;100.00
77662;BME280;69666;52.136;5.424;2023-08-01T01:44:20;99944.72;;;15.30;100.00
77662;BME280;69666;52.136;5.424;2023-08-01T01:46:49;99939.66;;;15.25;100.00
77662;BME280;69666;52.136;5.424;2023-08-01T01:49:19;99946.13;;;15.23;100.00
77662;BME280;69666;52.136;5.424;2023-08-01T01:51:48;99934.63;;;15.21;100.00
77662;BME280;69666;52.136;5.424;2023-08-01T01:54:18;99940.94;;;15.20;100.00
77662;BME280;69666;52.136;5.424;2023-08-01T01:56:47;99942.88;;;15.18;100.00
77662;BME280;69666;52.136;5.424;2023-08-01T01:59:16;99949.19;;;15.17;100.00
77662;BME280;69666;52.136;5.424;2023-08-01T02:01:45;99941.38;;;15.14;100.00
77662;BME280;69666;52.136;5.424;2023-08-01T02:04:15;99941.47;;;15.12;100.00
77662;BME280;69666;52.136;5.424;2023-08-01T02:06:44;99939.75;;;15.11;100.00
77662;BME280;69666;52.136;5.424;2023-08-01T02:09:13;99948.75;;;15.10;100.00
77662;BME280;69666;52.136;5.424;2023-08-01T02:11:42;99941.78;;;15.08;100.00
77662;BME280;69666;52.136;5.424;2023-08-01T02:14:12;99940.06;;;15.07;100.00
77662;BME280;69666;52.136;5.424;2023-08-01T02:16:42;99935.75;;;15.04;100.00
77662;BME280;69666;52.136;5.424;2023-08-01T02:19:11;99933.19;;;15.03;100.00
77662;BME280;69666;52.136;5.424;2023-08-01T02:21:40;99927.94;;;15.01;100.00
77662;BME280;69666;52.136;5.424;2023-08-01T02:24:09;99934.25;;;15.00;100.00
77662;BME280;69666;52.136;5.424;2023-08-01T02:26:39;99923.63;;;14.98;100.00
77662;BME280;69666;52.136;5.424;2023-08-01T02:29:09;99929.19;;;14.95;100.00
77662;BME280;69666;52.136;5.424;2023-08-01T02:31:38;99924.59;;;14.97;100.00
77662;BME280;69666;52.136;5.424;2023-08-01T02:34:07;99922.13;;;14.94;100.00
77662;BME280;69666;52.136;5.424;2023-08-01T02:36:36;99925.47;;;14.98;100.00
77662;BME280;69666;52.136;5.424;2023-08-01T02:39:06;99928.81;;;15.02;100.00
77662;BME280;69666;52.136;5.424;2023-08-01T02:41:36;99931.25;;;15.05;100.00
77662;BME280;69666;52.136;5.424;2023-08-01T02:44:05;99940.06;;;15.07;100.00
77662;BME280;69666;52.136;5.424;2023-08-01T02:46:34;99941.88;;;15.06;100.00
77662;BME280;69666;52.136;5.424;2023-08-01T02:49:03;99941.69;;;15.09;100.00
77662;BME280;69666;52.136;5.424;2023-08-01T02:51:32;99945.22;;;15.10;100.00
77662;BME280;69666;52.136;5.424;2023-08-01T02:54:02;99948.66;;;15.12;100.00
77662;BME280;69666;52.136;5.424;2023-08-01T02:56:31;99948.44;;;15.15;100.00
77662;BME280;69666;52.136;5.424;2023-08-01T02:59:00;99947.47;;;15.16;100.00
77662;BME280;69666;52.136;5.424;2023-08-01T03:01:30;99946.50;;;15.17;100.00
77662;BME280;69666;52.136;5.424;2023-08-01T03:04:00;99949.00;;;15.20;100.00
77662;BME280;69666;52.136;5.424;2023-08-01T03:06:31;99940.94;;;15.20;100.00
77662;BME280;69666;52.136;5.424;2023-08-01T03:09:00;99935.50;;;15.21;100.00
77662;BME280;69666;52.136;5.424;2023-08-01T03:11:29;99937.31;;;15.21;100.00
77662;BME280;69666;52.136;5.424;2023-08-01T03:13:58;99924.78;;;15.21;100.00
77662;BME280;69666;52.136;5.424;2023-08-01T03:16:28;99928.31;;;15.22;100.00
77662;BME280;69666;52.136;5.424;2023-08-01T03:18:57;99930.91;;;15.23;100.00
77662;BME280;69666;52.136;5.424;2023-08-01T03:21:32;99926.25;;;15.25;100.00
77662;BME280;69666;52.136;5.424;2023-08-01T03:24:04;99936.97;;;15.25;100.00
77662;BME280;69666;52.136;5.424;2023-08-01T03:26:37;99930.66;;;15.26;100.00
77662;BME280;69666;52.136;5.424;2023-08-01T03:29:06;99936.97;;;15.25;100.00
77662;BME280;69666;52.136;5.424;2023-08-01T03:31:35;99952.09;;;15.26;100.00
77662;BME280;69666;52.136;5.424;2023-08-01T03:34:05;99929.16;;;15.22;100.00
77662;BME280;69666;52.136;5.424;2023-08-01T03:36:36;99924.69;;;15.23;100.00
77662;BME280;69666;52.136;5.424;2023-08-01T03:39:06;99924.69;;;15.23;100.00
77662;BME280;69666;52.136;5.424;2023-08-01T03:41:38;99933.56;;;15.23;100.00
77662;BME280;69666;52.136;5.424;2023-08-01T03:44:07;99930.78;;;15.25;100.00
77662;BME280;69666;52.136;5.424;2023-08-01T03:46:36;99936.97;;;15.25;100.00
77662;BME280;69666;52.136;5.424;2023-08-01T03:49:06;99936.97;;;15.25;100.00
77662;BME280;69666;52.136;5.424;2023-08-01T03:51:36;99935.16;;;15.26;100.00
77662;BME280;69666;52.136;5.424;2023-08-01T03:54:05;99932.38;;;15.27;100.00
77662;BME280;69666;52.136;5.424;2023-08-01T03:56:41;99934.31;;;15.25;100.00
77662;BME280;69666;52.136;5.424;2023-08-01T03:59:17;99936.16;;;15.25;100.00
77662;BME280;69666;52.136;5.424;2023-08-01T04:01:47;99938.84;;;15.25;100.00
77662;BME280;69666;52.136;5.424;2023-08-01T04:04:16;99936.16;;;15.25;100.00
77662;BME280;69666;52.136;5.424;2023-08-01T04:06:45;99934.44;;;15.24;100.00
77662;BME280;69666;52.136;5.424;2023-08-01T04:09:14;99939.78;;;15.24;100.00
77662;BME280;69666;52.136;5.424;2023-08-01T04:11:43;99938.06;;;15.23;100.00
77662;BME280;69666;52.136;5.424;2023-08-01T04:14:13;99934.44;;;15.24;100.00
77662;BME280;69666;52.136;5.424;2023-08-01T04:16:42;99935.41;;;15.23;100.00
77662;BME280;69666;52.136;5.424;2023-08-01T04:19:11;99934.53;;;15.22;100.00
77662;BME280;69666;52.136;5.424;2023-08-01T04:21:41;99931.84;;;15.22;100.00
77662;BME280;69666;52.136;5.424;2023-08-01T04:24:10;99931.84;;;15.22;100.00
77662;BME280;69666;52.136;5.424;2023-08-01T04:26:39;99929.28;;;15.21;100.00
77662;BME280;69666;52.136;5.424;2023-08-01T04:29:09;99929.28;;;15.21;100.00
77662;BME280;69666;52.136;5.424;2023-08-01T04:31:38;99929.28;;;15.21;100.00
77662;BME280;69666;52.136;5.424;2023-08-01T04:34:07;99923.91;;;15.21;100.00
77662;BME280;69666;52.136;5.424;2023-08-01T04:36:36;99927.56;;;15.20;100.00
77662;BME280;69666;52.136;5.424;2023-08-01T04:39:06;99922.19;;;15.20;100.00
77662;BME280;69666;52.136;5.424;2023-08-01T04:41:35;99926.69;;;15.19;100.00
77662;BME280;69666;52.136;5.424;2023-08-01T04:44:04;99922.19;;;15.20;100.00
77662;BME280;69666;52.136;5.424;2023-08-01T04:46:34;99922.19;;;15.20;100.00
77662;BME280;69666;52.136;5.424;2023-08-01T04:49:03;99916.84;;;15.20;100.00
77662;BME280;69666;52.136;5.424;2023-08-01T04:51:32;99924.00;;;15.19;100.00
77662;BME280;69666;52.136;5.424;2023-08-01T04:54:01;99920.38;;;15.20;100.00
77662;BME280;69666;52.136;5.424;2023-08-01T04:56:31;99917.59;;;15.22;100.00
77662;BME280;69666;52.136;5.424;2023-08-01T04:59:00;99918.44;;;15.22;100.00
77662;BME280;69666;52.136;5.424;2023-08-01T05:01:30;99916.41;;;15.26;100.00
77662;BME280;69666;52.136;5.424;2023-08-01T05:03:59;99927.88;;;15.28;100.00
77662;BME280;69666;52.136;5.424;2023-08-01T05:06:28;99928.53;;;15.31;100.00
77662;BME280;69666;52.136;5.424;2023-08-01T05:08:58;99934.44;;;15.37;100.00
77662;BME280;69666;52.136;5.424;2023-08-01T05:11:27;99937.47;;;15.45;100.00
77662;BME280;69666;52.136;5.424;2023-08-01T05:13:56;99938.84;;;15.50;100.00
77662;BME280;69666;52.136;5.424;2023-08-01T05:16:25;99937.38;;;15.59;100.00
77662;BME280;69666;52.136;5.424;2023-08-01T05:18:54;99943.97;;;15.67;100.00
77662;BME280;69666;52.136;5.424;2023-08-01T05:21:24;99938.16;;;15.74;100.00
77662;BME280;69666;52.136;5.424;2023-08-01T05:23:53;99939.66;;;15.78;100.00
77662;BME280;69666;52.136;5.424;2023-08-01T05:26:22;99943.94;;;15.80;100.00
77662;BME280;69666;52.136;5.424;2023-08-01T05:28:51;99937.50;;;15.83;100.00
77662;BME280;69666;52.136;5.424;2023-08-01T05:31:21;99939.22;;;15.84;100.00
77662;BME280;69666;52.136;5.424;2023-08-01T05:33:50;99936.53;;;15.84;100.00
77662;BME280;69666;52.136;5.424;2023-08-01T05:36:19;99935.47;;;15.86;100.00
77662;BME280;69666;52.136;5.424;2023-08-01T05:38:48;99938.16;;;15.86;100.00
77662;BME280;69666;52.136;5.424;2023-08-01T05:41:17;99943.31;;;15.89;100.00
77662;BME280;69666;52.136;5.424;2023-08-01T05:43:49;99945.00;;;15.90;100.00
77662;BME280;69666;52.136;5.424;2023-08-01T05:46:18;99950.16;;;15.93;100.00
77662;BME280;69666;52.136;5.424;2023-08-01T05:48:47;99941.91;;;15.96;100.00
77662;BME280;69666;52.136;5.424;2023-08-01T05:51:16;99953.28;;;16.00;100.00
77662;BME280;69666;52.136;5.424;2023-08-01T05:53:46;99955.72;;;16.03;100.00
77662;BME280;69666;52.136;5.424;2023-08-01T05:56:15;99951.13;;;16.05;100.00
77662;BME280;69666;52.136;5.424;2023-08-01T05:58:44;99954.44;;;16.09;100.00
77662;BME280;69666;52.136;5.424;2023-08-01T06:01:14;99960.69;;;16.09;100.00
77662;BME280;69666;52.136;5.424;2023-08-01T06:03:43;99958.84;;;16.10;100.00
77662;BME280;69666;52.136;5.424;2023-08-01T06:06:12;99963.97;;;16.13;100.00
77662;BME280;69666;52.136;5.424;2023-08-01T06:08:41;99958.50;;;16.14;100.00
77662;BME280;69666;52.136;5.424;2023-08-01T06:11:11;99959.16;;;16.18;100.00
77662;BME280;69666;52.136;5.424;2023-08-01T06:13:40;99966.03;;;16.22;100.00
77662;BME280;69666;52.136;5.424;2023-08-01T06:16:09;99956.16;;;16.22;100.00
77662;BME280;69666;52.136;5.424;2023-08-01T06:18:39;99971.06;;;16.26;100.00
77662;BME280;69666;52.136;5.424;2023-08-01T06:21:08;99971.91;;;16.27;100.00
77662;BME280;69666;52.136;5.424;2023-08-01T06:23:37;99973.53;;;16.29;100.00
77662;BME280;69666;52.136;5.424;2023-08-01T06:26:06;99980.16;;;16.36;100.00
77662;BME280;69666;52.136;5.424;2023-08-01T06:28:35;99974.13;;;16.46;100.00
77662;BME280;69666;52.136;5.424;2023-08-01T06:31:05;99987.53;;;16.58;100.00
77662;BME280;69666;52.136;5.424;2023-08-01T06:33:34;99978.22;;;16.64;100.00
77662;BME280;69666;52.136;5.424;2023-08-01T06:36:04;99984.75;;;16.72;100.00
77662;BME280;69666;52.136;5.424;2023-08-01T06:38:34;99986.09;;;16.78;100.00
77662;BME280;69666;52.136;5.424;2023-08-01T06:41:03;99984.38;;;16.77;100.00
77662;BME280;69666;52.136;5.424;2023-08-01T06:43:32;99981.16;;;16.85;100.00
77662;BME280;69666;52.136;5.424;2023-08-01T06:46:01;99988.91;;;17.00;100.00
77662;BME280;69666;52.136;5.424;2023-08-01T06:48:31;99988.75;;;17.14;100.00
77662;BME280;69666;52.136;5.424;2023-08-01T06:51:04;99988.38;;;17.43;100.00
77662;BME280;69666;52.136;5.424;2023-08-01T06:53:33;99978.84;;;17.63;100.00
77662;BME280;69666;52.136;5.424;2023-08-01T06:56:02;99986.78;;;17.75;100.00
77662;BME280;69666;52.136;5.424;2023-08-01T06:58:31;99985.34;;;17.82;100.00
77662;BME280;69666;52.136;5.424;2023-08-01T07:01:00;99984.53;;;18.04;100.00
77662;BME280;69666;52.136;5.424;2023-08-01T07:03:30;99989.53;;;18.20;100.00
77662;BME280;69666;52.136;5.424;2023-08-01T07:05:59;99973.78;;;18.27;100.00
77662;BME280;69666;52.136;5.424;2023-08-01T07:08:29;99979.50;;;18.44;100.00
77662;BME280;69666;52.136;5.424;2023-08-01T07:10:59;99981.34;;;18.55;100.00
77662;BME280;69666;52.136;5.424;2023-08-01T07:13:28;99976.41;;;18.82;100.00
77662;BME280;69666;52.136;5.424;2023-08-01T07:15:57;99979.69;;;18.97;100.00
77662;BME280;69666;52.136;5.424;2023-08-01T07:18:27;99980.63;;;19.07;100.00
77662;BME280;69666;52.136;5.424;2023-08-01T07:21:02;99984.84;;;19.32;100.00
77662;BME280;69666;52.136;5.424;2023-08-01T07:23:35;99982.09;;;19.43;100.00
77662;BME280;69666;52.136;5.424;2023-08-01T07:26:04;99982.66;;;19.58;100.00
77662;BME280;69666;52.136;5.424;2023-08-01T07:28:33;99980.22;;;19.76;100.00
77662;BME280;69666;52.136;5.424;2023-08-01T07:31:04;99991.69;;;19.68;100.00
77662;BME280;69666;52.136;5.424;2023-08-01T07:33:37;99994.03;;;19.29;100.00
77662;BME280;69666;52.136;5.424;2023-08-01T07:36:06;99987.28;;;19.03;100.00
77662;BME280;69666;52.136;5.424;2023-08-01T07:38:35;99991.00;;;18.80;100.00
77662;BME280;69666;52.136;5.424;2023-08-01T07:41:05;100003.53;;;18.58;100.00
77662;BME280;69666;52.136;5.424;2023-08-01T07:43:35;99995.31;;;18.38;100.00
77662;BME280;69666;52.136;5.424;2023-08-01T07:46:04;100007.31;;;18.45;100.00
77662;BME280;69666;52.136;5.424;2023-08-01T07:48:34;100003.88;;;18.43;100.00
77662;BME280;69666;52.136;5.424;2023-08-01T07:51:03;99998.13;;;18.25;100.00
77662;BME280;69666;52.136;5.424;2023-08-01T07:53:34;99995.91;;;18.19;100.00
77662;BME280;69666;52.136;5.424;2023-08-01T07:56:03;100004.50;;;18.13;100.00
77662;BME280;69666;52.136;5.424;2023-08-01T07:58:35;100004.78;;;17.86;100.00
77662;BME280;69666;52.136;5.424;2023-08-01T08:01:05;100006.97;;;17.70;100.00
77662;BME280;69666;52.136;5.424;2023-08-01T08:03:34;100016.06;;;17.56;100.00
77662;BME280;69666;52.136;5.424;2023-08-01T08:06:04;100018.81;;;17.43;100.00
77662;BME280;69666;52.136;5.424;2023-08-01T08:08:33;100013.47;;;17.55;100.00
77662;BME280;69666;52.136;5.424;2023-08-01T08:11:04;100017.78;;;17.81;100.00
77662;BME280;69666;52.136;5.424;2023-08-01T08:13:33;100015.00;;;18.05;100.00
77662;BME280;69666;52.136;5.424;2023-08-01T08:16:02;100009.78;;;18.37;100.00
77662;BME280;69666;52.136;5.424;2023-08-01T08:18:32;100011.97;;;18.54;100.00
77662;BME280;69666;52.136;5.424;2023-08-01T08:21:02;100001.53;;;18.72;100.00
77662;BME280;69666;52.136;5.424;2023-08-01T08:23:31;100014.44;;;18.68;100.00
77662;BME280;69666;52.136;5.424;2023-08-01T08:26:00;100018.75;;;18.59;100.00
77662;BME280;69666;52.136;5.424;2023-08-01T08:28:32;100017.22;;;18.55;100.00
77662;BME280;69666;52.136;5.424;2023-08-01T08:31:01;100026.53;;;18.40;100.00
77662;BME280;69666;52.136;5.424;2023-08-01T08:33:32;100025.53;;;18.52;100.00
77662;BME280;69666;52.136;5.424;2023-08-01T08:36:01;100024.13;;;18.71;100.00
77662;BME280;69666;52.136;5.424;2023-08-01T08:38:30;100024.94;;;18.82;100.00
77662;BME280;69666;52.136;5.424;2023-08-01T08:41:09;100018.56;;;18.72;100.00
77662;BME280;69666;52.136;5.424;2023-08-01T08:43:39;100027.63;;;18.82;100.00
77662;BME280;69666;52.136;5.424;2023-08-01T08:46:11;100025.72;;;19.16;100.00
77662;BME280;69666;52.136;5.424;2023-08-01T08:48:42;100016.06;;;19.46;100.00
77662;BME280;69666;52.136;5.424;2023-08-01T08:51:13;100013.81;;;19.83;100.00
77662;BME280;69666;52.136;5.424;2023-08-01T08:53:42;100019.69;;;19.88;100.00
77662;BME280;69666;52.136;5.424;2023-08-01T08:56:14;100011.72;;;19.86;100.00
77662;BME280;69666;52.136;5.424;2023-08-01T08:58:44;100018.34;;;19.82;100.00
77662;BME280;69666;52.136;5.424;2023-08-01T09:01:15;100006.25;;;19.56;100.00
77662;BME280;69666;52.136;5.424;2023-08-01T09:03:47;100025.22;;;19.22;100.00
77662;BME280;69666;52.136;5.424;2023-08-01T09:06:19;100027.25;;;19.41;100.00
77662;BME280;69666;52.136;5.424;2023-08-01T09:09:15;100026.63;;;19.69;100.00
77662;BME280;69666;52.136;5.424;2023-08-01T09:11:48;100027.97;;;19.75;100.00
77662;BME280;69666;52.136;5.424;2023-08-01T09:14:19;100025.72;;;19.59;100.00
77662;BME280;69666;52.136;5.424;2023-08-01T09:16:49;100038.88;;;19.42;100.00
77662;BME280;69666;52.136;5.424;2023-08-01T09:19:21;100041.41;;;19.22;100.00
77662;BME280;69666;52.136;5.424;2023-08-01T09:21:51;100050.28;;;19.13;100.00
77662;BME280;69666;52.136;5.424;2023-08-01T09:24:21;100057.78;;;18.76;100.00
77662;BME280;69666;52.136;5.424;2023-08-01T09:26:51;100066.22;;;18.83;100.00
77662;BME280;69666;52.136;5.424;2023-08-01T09:29:20;100050.91;;;18.94;100.00
77662;BME280;69666;52.136;5.424;2023-08-01T09:31:50;100052.50;;;18.86;100.00
77662;BME280;69666;52.136;5.424;2023-08-01T09:34:25;100057.53;;;19.02;100.00
77662;BME280;69666;52.136;5.424;2023-08-01T09:36:59;100057.81;;;19.30;100.00
77662;BME280;69666;52.136;5.424;2023-08-01T09:39:29;100066.28;;;19.69;100.00
77662;BME280;69666;52.136;5.424;2023-08-01T09:41:59;100081.06;;;19.86;100.00
77662;BME280;69666;52.136;5.424;2023-08-01T09:44:30;100077.81;;;19.71;100.00
77662;BME280;69666;52.136;5.424;2023-08-01T09:47:02;100087.22;;;19.56;100.00
77662;BME280;69666;52.136;5.424;2023-08-01T09:49:31;100082.09;;;19.30;100.00
77662;BME280;69666;52.136;5.424;2023-08-01T09:52:02;100075.63;;;19.22;100.00
77662;BME280;69666;52.136;5.424;2023-08-01T09:54:31;100080.81;;;19.14;100.00
77662;BME280;69666;52.136;5.424;2023-08-01T09:57:04;100082.66;;;19.02;100.00
77662;BME280;69666;52.136;5.424;2023-08-01T09:59:34;100081.69;;;19.03;100.00
77662;BME280;69666;52.136;5.424;2023-08-01T10:02:15;100082.97;;;19.20;100.00
77662;BME280;69666;52.136;5.424;2023-08-01T10:04:47;100085.88;;;19.39;100.00
77662;BME280;69666;52.136;5.424;2023-08-01T10:07:23;100083.78;;;19.43;100.00
77662;BME280;69666;52.136;5.424;2023-08-01T10:09:57;100082.97;;;19.95;100.00
77662;BME280;69666;52.136;5.424;2023-08-01T10:12:27;100090.34;;;20.34;100.00
77662;BME280;69666;52.136;5.424;2023-08-01T10:14:57;100081.06;;;20.48;100.00
77662;BME280;69666;52.136;5.424;2023-08-01T10:17:28;100080.41;;;20.86;100.00
77662;BME280;69666;52.136;5.424;2023-08-01T10:20:00;100086.63;;;21.17;100.00
77662;BME280;69666;52.136;5.424;2023-08-01T10:22:32;100084.75;;;21.08;100.00
77662;BME280;69666;52.136;5.424;2023-08-01T10:25:04;100084.41;;;20.92;100.00
77662;BME280;69666;52.136;5.424;2023-08-01T10:27:33;100096.19;;;20.81;100.00
77662;BME280;69666;52.136;5.424;2023-08-01T10:30:05;100101.34;;;20.54;100.00
77662;BME280;69666;52.136;5.424;2023-08-01T10:32:40;100102.00;;;20.76;100.00
77662;BME280;69666;52.136;5.424;2023-08-01T10:35:09;100098.09;;;21.00;100.00
77662;BME280;69666;52.136;5.424;2023-08-01T10:37:42;100103.06;;;21.35;100.00
77662;BME280;69666;52.136;5.424;2023-08-01T10:40:13;100100.53;;;21.43;100.00
77662;BME280;69666;52.136;5.424;2023-08-01T10:42:45;100102.09;;;21.36;100.00
77662;BME280;69666;52.136;5.424;2023-08-01T10:45:23;100097.84;;;21.12;100.00
77662;BME280;69666;52.136;5.424;2023-08-01T10:48:16;100109.19;;;20.87;100.00
77662;BME280;69666;52.136;5.424;2023-08-01T10:50:55;100111.63;;;21.00;100.00
77662;BME280;69666;52.136;5.424;2023-08-01T10:53:38;100101.91;;;21.18;100.00
77662;BME280;69666;52.136;5.424;2023-08-01T10:56:20;100104.09;;;21.53;100.00
77662;BME280;69666;52.136;5.424;2023-08-01T10:58:49;100114.94;;;21.53;100.00
77662;BME280;69666;52.136;5.424;2023-08-01T11:01:18;100105.53;;;21.47;100.00
77662;BME280;69666;52.136;5.424;2023-08-01T11:03:47;100105.94;;;21.53;100.00
77662;BME280;69666;52.136;5.424;2023-08-01T11:06:18;100110.78;;;21.30;100.00
77662;BME280;69666;52.136;5.424;2023-08-01T11:08:47;100110.25;;;21.15;100.00
77662;BME280;69666;52.136;5.424;2023-08-01T11:11:17;100110.72;;;21.20;100.00
77662;BME280;69666;52.136;5.424;2023-08-01T11:13:55;100119.31;;;21.35;100.00
77662;BME280;69666;52.136;5.424;2023-08-01T11:16:25;100113.19;;;21.42;100.00
77662;BME280;69666;52.136;5.424;2023-08-01T11:18:54;100116.94;;;21.41;100.00
77662;BME280;69666;52.136;5.424;2023-08-01T11:21:27;100116.22;;;21.39;100.00
77662;BME280;69666;52.136;5.424;2023-08-01T11:23:57;100125.84;;;21.23;100.00
77662;BME280;69666;52.136;5.424;2023-08-01T11:26:26;100128.97;;;21.18;100.00
77662;BME280;69666;52.136;5.424;2023-08-01T11:28:56;100123.63;;;21.47;100.00
77662;BME280;69666;52.136;5.424;2023-08-01T11:31:30;100130.63;;;21.59;100.00
77662;BME280;69666;52.136;5.424;2023-08-01T11:33:59;100139.84;;;21.37;100.00
77662;BME280;69666;52.136;5.424;2023-08-01T11:36:29;100127.41;;;21.25;100.00
77662;BME280;69666;52.136;5.424;2023-08-01T11:39:00;100137.66;;;21.22;100.00
77662;BME280;69666;52.136;5.424;2023-08-01T11:41:30;100142.06;;;21.23;100.00
77662;BME280;69666;52.136;5.424;2023-08-01T11:44:04;100138.06;;;21.17;100.00
77662;BME280;69666;52.136;5.424;2023-08-01T11:46:35;100143.66;;;20.95;100.00
77662;BME280;69666;52.136;5.424;2023-08-01T11:49:06;100143.09;;;20.70;100.00
77662;BME280;69666;52.136;5.424;2023-08-01T11:51:40;100148.16;;;20.54;100.00
77662;BME280;69666;52.136;5.424;2023-08-01T11:54:11;100146.81;;;20.49;100.00
77662;BME280;69666;52.136;5.424;2023-08-01T11:56:42;100156.72;;;20.38;100.00
77662;BME280;69666;52.136;5.424;2023-08-01T11:59:13;100153.50;;;20.33;100.00
77662;BME280;69666;52.136;5.424;2023-08-01T12:01:45;100154.03;;;20.27;100.00
77662;BME280;69666;52.136;5.424;2023-08-01T12:04:27;100151.00;;;20.21;100.00
77662;BME280;69666;52.136;5.424;2023-08-01T12:06:56;100157.13;;;20.23;100.00
77662;BME280;69666;52.136;5.424;2023-08-01T12:09:25;100154.88;;;20.07;100.00
77662;BME280;69666;52.136;5.424;2023-08-01T12:12:00;100158.97;;;19.90;100.00
77662;BME280;69666;52.136;5.424;2023-08-01T12:14:30;100173.75;;;19.86;100.00
77662;BME280;69666;52.136;5.424;2023-08-01T12:16:59;100159.50;;;19.84;100.00
77662;BME280;69666;52.136;5.424;2023-08-01T12:19:28;100162.09;;;19.86;100.00
77662;BME280;69666;52.136;5.424;2023-08-01T12:21:58;100180.50;;;19.81;100.00
77662;BME280;69666;52.136;5.424;2023-08-01T12:24:27;100171.81;;;19.77;100.00
77662;BME280;69666;52.136;5.424;2023-08-01T12:26:58;100170.34;;;19.73;100.00
77662;BME280;69666;52.136;5.424;2023-08-01T12:29:27;100180.19;;;19.63;100.00
77662;BME280;69666;52.136;5.424;2023-08-01T12:31:56;100182.28;;;19.59;100.00
77662;BME280;69666;52.136;5.424;2023-08-01T12:34:25;100184.81;;;19.72;100.00
77662;BME280;69666;52.136;5.424;2023-08-01T12:36:54;100176.59;;;19.74;100.00
77662;BME280;69666;52.136;5.424;2023-08-01T12:39:24;100183.38;;;19.68;100.00
77662;BME280;69666;52.136;5.424;2023-08-01T12:41:54;100184.13;;;19.59;100.00
77662;BME280;69666;52.136;5.424;2023-08-01T12:44:24;100190.97;;;19.74;100.00
77662;BME280;69666;52.136;5.424;2023-08-01T12:46:53;100183.22;;;19.81;100.00
77662;BME280;69666;52.136;5.424;2023-08-01T12:49:22;100187.19;;;20.09;100.00
77662;BME280;69666;52.136;5.424;2023-08-01T12:51:51;100184.50;;;20.29;100.00
77662;BME280;69666;52.136;5.424;2023-08-01T12:54:21;100177.34;;;20.39;100.00
77662;BME280;69666;52.136;5.424;2023-08-01T12:56:50;100186.06;;;20.43;100.00
77662;BME280;69666;52.136;5.424;2023-08-01T12:59:19;100185.91;;;20.45;100.00
77662;BME280;69666;52.136;5.424;2023-08-01T13:01:48;100175.09;;;20.45;100.00